sensor_id;sensor_type;location;lat;lon;timestamp;P1;durP1;ratioP1;P2;durP2;ratioP2
1164;SDS011;571;50.930;6.926;2022-11-12T03:45:27;9.20;;;8.00;;
1164;SDS011;571;50.930;6.926;2022-11-12T03:47:55;8.67;;;7.10;;
1164;SDS011;571;50.930;6.926;2022-11-12T03:50:23;7.50;;;6.80;;
1164;SDS011;571;50.930;6.926;2022-11-12T03:52:52;7.60;;;6.90;;
1164;SDS011;571;50.930;6.926;2022-11-12T03:55:21;8.57;;;7.77;;
1164;SDS011;571;50.930;6.926;2022-11-12T03:57:49;9.13;;;7.27;;
1164;SDS011;571;50.930;6.926;2022-11-12T06:12:14;11.33;;;9.30;;
1164;SDS011;571;50.930;6.926;2022-11-12T06:14:40;9.37;;;8.43;;
1164;SDS011;571;50.930;6.926;2022-11-12T06:17:07;10.70;;;9.17;;
1164;SDS011;571;50.930;6.926;2022-11-12T06:19:34;11.67;;;9.70;;
1164;SDS011;571;50.930;6.926;2022-11-12T06:22:01;10.07;;;9.00;;
1164;SDS011;571;50.930;6.926;2022-11-12T06:24:27;11.10;;;9.60;;
1164;SDS011;571;50.930;6.926;2022-11-12T06:26:55;11.90;;;9.57;;
1164;SDS011;571;50.930;6.926;2022-11-12T06:29:23;10.50;;;8.87;;
1164;SDS011;571;50.930;6.926;2022-11-12T06:31:49;13.27;;;8.00;;
1164;SDS011;571;50.930;6.926;2022-11-12T06:34:16;11.10;;;9.90;;
1164;SDS011;571;50.930;6.926;2022-11-12T06:36:43;10.03;;;9.07;;
1164;SDS011;571;50.930;6.926;2022-11-12T06:39:12;9.80;;;8.47;;
1164;SDS011;571;50.930;6.926;2022-11-12T06:41:40;9.70;;;8.70;;
1164;SDS011;571;50.930;6.926;2022-11-12T06:44:06;11.13;;;8.30;;
1164;SDS011;571;50.930;6.926;2022-11-12T06:46:37;14.00;;;8.30;;
1164;SDS011;571;50.930;6.926;2022-11-12T06:49:04;11.80;;;9.60;;
1164;SDS011;571;50.930;6.926;2022-11-12T06:51:31;11.30;;;8.97;;
1164;SDS011;571;50.930;6.926;2022-11-12T06:53:57;10.73;;;8.37;;
1164;SDS011;571;50.930;6.926;2022-11-12T06:56:24;10.10;;;9.17;;
1164;SDS011;571;50.930;6.926;2022-11-12T06:58:51;10.60;;;8.77;;
1164;SDS011;571;50.930;6.926;2022-11-12T07:01:17;9.20;;;8.10;;
1164;SDS011;571;50.930;6.926;2022-11-12T07:03:45;9.80;;;8.80;;
1164;SDS011;571;50.930;6.926;2022-11-12T07:06:17;12.90;;;9.10;;
1164;SDS011;571;50.930;6.926;2022-11-12T07:08:44;9.77;;;8.23;;
1164;SDS011;571;50.930;6.926;2022-11-12T07:11:13;10.80;;;9.00;;
1164;SDS011;571;50.930;6.926;2022-11-12T07:13:39;9.47;;;8.50;;
1164;SDS011;571;50.930;6.926;2022-11-12T07:16:08;10.87;;;8.90;;
1164;SDS011;571;50.930;6.926;2022-11-12T07:18:36;9.70;;;7.60;;
1164;SDS011;571;50.930;6.926;2022-11-12T07:21:05;8.47;;;7.67;;
1164;SDS011;571;50.930;6.926;2022-11-12T07:23:34;9.87;;;7.80;;
1164;SDS011;571;50.930;6.926;2022-11-12T07:26:02;13.23;;;7.53;;
1164;SDS011;571;50.930;6.926;2022-11-12T07:28:31;9.57;;;8.57;;
1164;SDS011;571;50.930;6.926;2022-11-12T07:30:59;9.20;;;8.23;;
1164;SDS011;571;50.930;6.926;2022-11-12T07:33:27;9.60;;;8.63;;
1164;SDS011;571;50.930;6.926;2022-11-12T07:35:58;10.40;;;7.70;;
1164;SDS011;571;50.930;6.926;2022-11-12T07:38:27;14.70;;;8.60;;
1164;SDS011;571;50.930;6.926;2022-11-12T07:40:57;9.10;;;6.90;;
1164;SDS011;571;50.930;6.926;2022-11-12T07:43:25;7.87;;;7.13;;
1164;SDS011;571;50.930;6.926;2022-11-12T07:45:52;7.80;;;6.00;;
1164;SDS011;571;50.930;6.926;2022-11-12T07:48:23;8.13;;;7.33;;
1164;SDS011;571;50.930;6.926;2022-11-12T07:50:49;8.50;;;7.77;;
1164;SDS011;571;50.930;6.926;2022-11-12T07:53:16;7.17;;;6.47;;
1164;SDS011;571;50.930;6.926;2022-11-12T07:55:45;7.97;;;7.20;;
1164;SDS011;571;50.930;6.926;2022-11-12T07:58:18;10.93;;;8.03;;
1164;SDS011;571;50.930;6.926;2022-11-12T08:00:45;11.73;;;7.57;;
1164;SDS011;571;50.930;6.926;2022-11-12T08:03:11;8.47;;;7.67;;
1164;SDS011;571;50.930;6.926;2022-11-12T08:05:38;8.00;;;7.20;;
1164;SDS011;571;50.930;6.926;2022-11-12T08:08:05;7.60;;;6.57;;
1164;SDS011;571;50.930;6.926;2022-11-12T08:10:32;6.83;;;6.20;;
1164;SDS011;571;50.930;6.926;2022-11-12T08:13:00;11.80;;;6.80;;
1164;SDS011;571;50.930;6.926;2022-11-12T08:15:26;6.60;;;5.90;;
1164;SDS011;571;50.930;6.926;2022-11-12T08:17:53;6.93;;;5.90;;
1164;SDS011;571;50.930;6.926;2022-11-12T08:20:20;8.10;;;7.30;;
1164;SDS011;571;50.930;6.926;2022-11-12T08:22:47;11.47;;;7.10;;
1164;SDS011;571;50.930;6.926;2022-11-12T08:25:14;6.97;;;6.27;;
1164;SDS011;571;50.930;6.926;2022-11-12T08:27:41;7.40;;;6.67;;
1164;SDS011;571;50.930;6.926;2022-11-12T08:30:10;7.97;;;7.17;;
1164;SDS011;571;50.930;6.926;2022-11-12T08:32:37;7.13;;;6.43;;
1164;SDS011;571;50.930;6.926;2022-11-12T08:35:04;8.70;;;6.80;;
1164;SDS011;571;50.930;6.926;2022-11-12T08:37:31;6.93;;;6.20;;
1164;SDS011;571;50.930;6.926;2022-11-12T08:39:58;7.90;;;6.57;;
1164;SDS011;571;50.930;6.926;2022-11-12T08:42:25;10.43;;;6.83;;
1164;SDS011;571;50.930;6.926;2022-11-12T08:44:51;7.07;;;6.30;;
1164;SDS011;571;50.930;6.926;2022-11-12T08:47:19;7.67;;;7.00;;
1164;SDS011;571;50.930;6.926;2022-11-12T08:49:46;7.83;;;5.83;;
1164;SDS011;571;50.930;6.926;2022-11-12T08:52:13;6.00;;;5.40;;
1164;SDS011;571;50.930;6.926;2022-11-12T08:54:39;7.73;;;7.10;;
1164;SDS011;571;50.930;6.926;2022-11-12T08:57:06;6.70;;;6.00;;
1164;SDS011;571;50.930;6.926;2022-11-12T08:59:33;8.93;;;6.53;;
1164;SDS011;571;50.930;6.926;2022-11-12T09:02:00;6.90;;;6.23;;
1164;SDS011;571;50.930;6.926;2022-11-12T09:04:28;7.80;;;7.03;;
1164;SDS011;571;50.930;6.926;2022-11-12T09:06:54;6.10;;;5.60;;
1164;SDS011;571;50.930;6.926;2022-11-12T09:09:21;6.53;;;5.93;;
1164;SDS011;571;50.930;6.926;2022-11-12T09:11:48;7.60;;;6.90;;
1164;SDS011;571;50.930;6.926;2022-11-12T09:14:15;10.53;;;8.07;;
1164;SDS011;571;50.930;6.926;2022-11-12T09:16:41;7.80;;;7.00;;
1164;SDS011;571;50.930;6.926;2022-11-12T09:19:08;6.83;;;6.17;;
1164;SDS011;571;50.930;6.926;2022-11-12T09:21:36;8.00;;;6.10;;
1164;SDS011;571;50.930;6.926;2022-11-12T09:24:04;6.00;;;5.40;;
1164;SDS011;571;50.930;6.926;2022-11-12T09:26:31;6.60;;;6.00;;
1164;SDS011;571;50.930;6.926;2022-11-12T09:28:57;7.40;;;6.27;;
1164;SDS011;571;50.930;6.926;2022-11-12T09:31:24;7.07;;;6.00;;
1164;SDS011;571;50.930;6.926;2022-11-12T09:33:51;11.23;;;6.07;;
1164;SDS011;571;50.930;6.926;2022-11-12T09:36:17;6.03;;;5.50;;
1164;SDS011;571;50.930;6.926;2022-11-12T09:38:45;5.93;;;5.40;;
1164;SDS011;571;50.930;6.926;2022-11-12T09:41:17;7.00;;;5.90;;
1164;SDS011;571;50.930;6.926;2022-11-12T09:43:49;7.00;;;6.30;;
1164;SDS011;571;50.930;6.926;2022-11-12T09:46:22;6.10;;;5.50;;
1164;SDS011;571;50.930;6.926;2022-11-12T09:48:55;9.17;;;5.83;;
1164;SDS011;571;50.930;6.926;2022-11-12T09:51:27;6.13;;;5.53;;
1164;SDS011;571;50.930;6.926;2022-11-12T09:53:59;7.00;;;6.33;;
1164;SDS011;571;50.930;6.926;2022-11-12T09:56:29;8.17;;;6.50;;
1164;SDS011;571;50.930;6.926;2022-11-12T09:58:56;6.47;;;5.90;;
1164;SDS011;571;50.930;6.926;2022-11-12T10:01:23;7.33;;;6.57;;
1164;SDS011;571;50.930;6.926;2022-11-12T10:04:07;7.23;;;6.50;;
1164;SDS011;571;50.930;6.926;2022-11-12T10:06:48;6.53;;;5.93;;
1164;SDS011;571;50.930;6.926;2022-11-12T10:09:23;8.33;;;6.00;;
1164;SDS011;571;50.930;6.926;2022-11-12T10:12:01;7.07;;;6.30;;
1164;SDS011;571;50.930;6.926;2022-11-12T10:14:58;7.17;;;5.50;;
1164;SDS011;571;50.930;6.926;2022-11-12T10:18:14;8.17;;;6.27;;
1164;SDS011;571;50.930;6.926;2022-11-12T10:20:47;7.00;;;6.30;;
1164;SDS011;571;50.930;6.926;2022-11-12T10:23:18;6.30;;;5.80;;
1164;SDS011;571;50.930;6.926;2022-11-12T10:25:51;7.43;;;5.80;;
1164;SDS011;571;50.930;6.926;2022-11-12T10:28:24;6.43;;;5.83;;
1164;SDS011;571;50.930;6.926;2022-11-12T10:30:54;8.20;;;5.93;;
1164;SDS011;571;50.930;6.926;2022-11-12T10:33:28;5.77;;;5.27;;
1164;SDS011;571;50.930;6.926;2022-11-12T10:36:04;6.67;;;6.10;;
1164;SDS011;571;50.930;6.926;2022-11-12T10:38:51;6.30;;;5.70;;
1164;SDS011;571;50.930;6.926;2022-11-12T10:41:21;8.47;;;6.00;;
1164;SDS011;571;50.930;6.926;2022-11-12T10:43:53;8.17;;;6.30;;
1164;SDS011;571;50.930;6.926;2022-11-12T10:46:25;6.43;;;5.83;;
1164;SDS011;571;50.930;6.926;2022-11-12T10:48:54;6.97;;;6.37;;
1164;SDS011;571;50.930;6.926;2022-11-12T10:51:24;5.00;;;4.60;;
1164;SDS011;571;50.930;6.926;2022-11-12T10:53:53;6.33;;;5.73;;
1164;SDS011;571;50.930;6.926;2022-11-12T10:56:23;5.77;;;5.27;;
1164;SDS011;571;50.930;6.926;2022-11-12T10:59:08;6.80;;;5.33;;
1164;SDS011;571;50.930;6.926;2022-11-12T11:01:36;7.27;;;5.80;;
1164;SDS011;571;50.930;6.926;2022-11-12T11:04:03;8.70;;;5.20;;
1164;SDS011;571;50.930;6.926;2022-11-12T11:06:29;5.97;;;5.37;;
1164;SDS011;571;50.930;6.926;2022-11-12T11:09:07;7.70;;;5.83;;
1164;SDS011;571;50.930;6.926;2022-11-12T11:11:48;10.40;;;5.47;;
1164;SDS011;571;50.930;6.926;2022-11-12T11:14:23;5.90;;;4.90;;
1164;SDS011;571;50.930;6.926;2022-11-12T11:16:57;7.20;;;5.63;;
1164;SDS011;571;50.930;6.926;2022-11-12T11:19:27;6.70;;;5.97;;
1164;SDS011;571;50.930;6.926;2022-11-12T11:25:02;6.03;;;5.33;;
1164;SDS011;571;50.930;6.926;2022-11-12T11:27:43;6.20;;;4.50;;
1164;SDS011;571;50.930;6.926;2022-11-12T11:30:21;5.93;;;5.37;;
1164;SDS011;571;50.930;6.926;2022-11-12T11:35:47;6.43;;;5.80;;
1164;SDS011;571;50.930;6.926;2022-11-12T11:38:24;6.20;;;5.27;;
1164;SDS011;571;50.930;6.926;2022-11-12T11:41:01;6.33;;;5.70;;
1164;SDS011;571;50.930;6.926;2022-11-12T11:43:44;6.53;;;5.90;;
1164;SDS011;571;50.930;6.926;2022-11-12T11:46:27;6.47;;;5.83;;
1164;SDS011;571;50.930;6.926;2022-11-12T11:49:23;6.20;;;5.60;;
1164;SDS011;571;50.930;6.926;2022-11-12T11:52:13;6.50;;;5.53;;
1164;SDS011;571;50.930;6.926;2022-11-12T11:55:00;9.83;;;6.47;;
1164;SDS011;571;50.930;6.926;2022-11-12T11:57:39;7.27;;;6.40;;
1164;SDS011;571;50.930;6.926;2022-11-12T12:00:15;6.47;;;5.87;;
1164;SDS011;571;50.930;6.926;2022-11-12T12:02:48;8.20;;;5.90;;
1164;SDS011;571;50.930;6.926;2022-11-12T12:05:32;6.13;;;5.47;;
1164;SDS011;571;50.930;6.926;2022-11-12T12:08:07;6.73;;;6.10;;
1164;SDS011;571;50.930;6.926;2022-11-12T12:10:44;5.93;;;5.43;;
1164;SDS011;571;50.930;6.926;2022-11-12T12:13:19;8.40;;;7.37;;
1164;SDS011;571;50.930;6.926;2022-11-12T12:15:58;6.13;;;5.50;;
1164;SDS011;571;50.930;6.926;2022-11-12T12:27:46;7.17;;;6.50;;
1164;SDS011;571;50.930;6.926;2022-11-12T13:58:42;10.37;;;5.37;;
1164;SDS011;571;50.930;6.926;2022-11-12T14:01:55;6.97;;;4.80;;
1164;SDS011;571;50.930;6.926;2022-11-12T14:08:32;5.10;;;4.50;;
1164;SDS011;571;50.930;6.926;2022-11-12T14:18:11;5.17;;;4.67;;
1164;SDS011;571;50.930;6.926;2022-11-12T14:24:40;5.77;;;5.00;;
1164;SDS011;571;50.930;6.926;2022-11-12T14:37:31;4.97;;;4.30;;
1164;SDS011;571;50.930;6.926;2022-11-12T14:40:11;4.60;;;4.20;;
1164;SDS011;571;50.930;6.926;2022-11-12T14:42:50;4.43;;;3.60;;
1164;SDS011;571;50.930;6.926;2022-11-12T14:45:21;4.90;;;4.40;;
1164;SDS011;571;50.930;6.926;2022-11-12T14:47:51;4.30;;;3.90;;
1164;SDS011;571;50.930;6.926;2022-11-12T14:50:20;4.37;;;3.90;;
1164;SDS011;571;50.930;6.926;2022-11-12T14:52:51;3.30;;;3.00;;
1164;SDS011;571;50.930;6.926;2022-11-12T14:55:35;3.83;;;3.53;;
1164;SDS011;571;50.930;6.926;2022-11-12T14:58:10;3.73;;;3.43;;
1164;SDS011;571;50.930;6.926;2022-11-12T15:00:44;3.43;;;3.13;;
1164;SDS011;571;50.930;6.926;2022-11-12T15:03:20;4.10;;;3.10;;
1164;SDS011;571;50.930;6.926;2022-11-12T15:05:53;3.40;;;3.10;;
1164;SDS011;571;50.930;6.926;2022-11-12T15:08:31;5.23;;;3.70;;
1164;SDS011;571;50.930;6.926;2022-11-12T15:11:15;5.23;;;3.60;;
1164;SDS011;571;50.930;6.926;2022-11-12T15:13:45;5.60;;;3.73;;
1164;SDS011;571;50.930;6.926;2022-11-12T15:16:17;6.93;;;3.97;;
1164;SDS011;571;50.930;6.926;2022-11-12T15:19:14;3.53;;;3.07;;
1164;SDS011;571;50.930;6.926;2022-11-12T15:21:58;3.73;;;3.37;;
1164;SDS011;571;50.930;6.926;2022-11-12T15:25:01;3.30;;;3.00;;
1164;SDS011;571;50.930;6.926;2022-11-12T15:28:26;3.73;;;3.20;;
1164;SDS011;571;50.930;6.926;2022-11-12T15:31:26;3.50;;;3.20;;
1164;SDS011;571;50.930;6.926;2022-11-12T15:36:59;4.27;;;3.77;;
1164;SDS011;571;50.930;6.926;2022-11-12T15:39:47;5.00;;;4.50;;
1164;SDS011;571;50.930;6.926;2022-11-12T15:45:47;3.80;;;3.30;;
1164;SDS011;571;50.930;6.926;2022-11-12T15:48:27;4.57;;;3.60;;
1164;SDS011;571;50.930;6.926;2022-11-12T15:51:13;3.87;;;3.53;;
1164;SDS011;571;50.930;6.926;2022-11-12T15:53:53;3.67;;;3.37;;
1164;SDS011;571;50.930;6.926;2022-11-12T15:56:31;4.60;;;3.40;;
1164;SDS011;571;50.930;6.926;2022-11-12T15:59:13;7.33;;;3.20;;
1164;SDS011;571;50.930;6.926;2022-11-12T16:01:47;3.33;;;3.03;;
1164;SDS011;571;50.930;6.926;2022-11-12T16:04:34;3.57;;;2.83;;
1164;SDS011;571;50.930;6.926;2022-11-12T16:07:10;3.70;;;3.40;;
1164;SDS011;571;50.930;6.926;2022-11-12T16:09:43;5.53;;;3.63;;
1164;SDS011;571;50.930;6.926;2022-11-12T16:12:24;5.60;;;3.00;;
1164;SDS011;571;50.930;6.926;2022-11-12T16:15:12;3.43;;;3.13;;
1164;SDS011;571;50.930;6.926;2022-11-12T16:17:53;3.70;;;3.20;;
1164;SDS011;571;50.930;6.926;2022-11-12T16:20:27;4.53;;;3.83;;
1164;SDS011;571;50.930;6.926;2022-11-12T16:23:03;3.87;;;3.43;;
1164;SDS011;571;50.930;6.926;2022-11-12T16:25:32;3.67;;;3.37;;
1164;SDS011;571;50.930;6.926;2022-11-12T16:28:01;5.30;;;4.10;;
1164;SDS011;571;50.930;6.926;2022-11-12T16:30:30;4.17;;;3.77;;
1164;SDS011;571;50.930;6.926;2022-11-12T16:32:58;3.83;;;3.33;;
1164;SDS011;571;50.930;6.926;2022-11-12T16:35:26;5.33;;;4.57;;
1164;SDS011;571;50.930;6.926;2022-11-12T16:37:54;5.73;;;3.43;;
1164;SDS011;571;50.930;6.926;2022-11-12T16:40:26;5.67;;;4.43;;
1164;SDS011;571;50.930;6.926;2022-11-12T16:42:54;4.50;;;4.10;;
1164;SDS011;571;50.930;6.926;2022-11-12T16:45:21;4.23;;;3.80;;
1164;SDS011;571;50.930;6.926;2022-11-12T16:47:50;4.40;;;4.00;;
1164;SDS011;571;50.930;6.926;2022-11-12T16:50:19;5.30;;;4.80;;
1164;SDS011;571;50.930;6.926;2022-11-12T16:52:47;4.60;;;4.20;;
1164;SDS011;571;50.930;6.926;2022-11-12T16:55:14;6.80;;;3.67;;
1164;SDS011;571;50.930;6.926;2022-11-12T16:57:43;8.50;;;4.43;;
1164;SDS011;571;50.930;6.926;2022-11-12T17:00:10;4.03;;;3.40;;
1164;SDS011;571;50.930;6.926;2022-11-12T17:02:39;4.50;;;3.53;;
1164;SDS011;571;50.930;6.926;2022-11-12T17:05:13;5.93;;;4.07;;
1164;SDS011;571;50.930;6.926;2022-11-12T17:07:43;3.80;;;3.50;;
1164;SDS011;571;50.930;6.926;2022-11-12T17:10:13;4.20;;;3.80;;
1164;SDS011;571;50.930;6.926;2022-11-12T17:12:50;5.00;;;4.03;;
1164;SDS011;571;50.930;6.926;2022-11-12T17:15:25;4.90;;;4.37;;
1164;SDS011;571;50.930;6.926;2022-11-12T17:17:55;4.40;;;4.00;;
1164;SDS011;571;50.930;6.926;2022-11-12T17:20:49;4.23;;;3.70;;
1164;SDS011;571;50.930;6.926;2022-11-12T17:23:16;4.07;;;3.67;;
1164;SDS011;571;50.930;6.926;2022-11-12T17:25:57;3.90;;;3.50;;
1164;SDS011;571;50.930;6.926;2022-11-12T17:28:41;3.97;;;3.57;;
1164;SDS011;571;50.930;6.926;2022-11-12T17:31:12;4.40;;;3.20;;
1164;SDS011;571;50.930;6.926;2022-11-12T17:33:53;4.47;;;3.70;;
1164;SDS011;571;50.930;6.926;2022-11-12T17:39:46;4.00;;;3.70;;
1164;SDS011;571;50.930;6.926;2022-11-12T17:42:19;4.57;;;4.17;;
1164;SDS011;571;50.930;6.926;2022-11-12T17:44:48;5.03;;;4.63;;
1164;SDS011;571;50.930;6.926;2022-11-12T17:47:19;4.00;;;3.60;;
1164;SDS011;571;50.930;6.926;2022-11-12T17:49:49;4.13;;;3.73;;
1164;SDS011;571;50.930;6.926;2022-11-12T17:52:24;3.43;;;3.13;;
1164;SDS011;571;50.930;6.926;2022-11-12T17:55:19;4.93;;;4.07;;
1164;SDS011;571;50.930;6.926;2022-11-12T17:58:17;3.80;;;3.47;;
1164;SDS011;571;50.930;6.926;2022-11-12T18:01:16;6.70;;;4.20;;
1164;SDS011;571;50.930;6.926;2022-11-12T18:04:04;3.93;;;3.53;;
1164;SDS011;571;50.930;6.926;2022-11-12T18:06:36;3.60;;;3.30;;
1164;SDS011;571;50.930;6.926;2022-11-12T18:09:11;4.47;;;4.07;;
1164;SDS011;571;50.930;6.926;2022-11-12T18:11:47;9.73;;;4.30;;
1164;SDS011;571;50.930;6.926;2022-11-12T18:14:23;3.63;;;3.33;;
1164;SDS011;571;50.930;6.926;2022-11-12T18:16:52;4.87;;;4.03;;
1164;SDS011;571;50.930;6.926;2022-11-12T18:19:39;4.70;;;4.30;;
1164;SDS011;571;50.930;6.926;2022-11-12T18:22:06;4.30;;;3.90;;
1164;SDS011;571;50.930;6.926;2022-11-12T18:24:35;3.70;;;3.40;;
1164;SDS011;571;50.930;6.926;2022-11-12T18:27:02;4.50;;;4.10;;
1164;SDS011;571;50.930;6.926;2022-11-12T18:29:29;4.83;;;4.33;;
1164;SDS011;571;50.930;6.926;2022-11-12T18:31:57;4.90;;;4.33;;
1164;SDS011;571;50.930;6.926;2022-11-12T18:34:24;4.30;;;3.90;;
1164;SDS011;571;50.930;6.926;2022-11-12T18:36:50;4.20;;;3.80;;
1164;SDS011;571;50.930;6.926;2022-11-12T18:39:17;8.07;;;5.80;;
1164;SDS011;571;50.930;6.926;2022-11-12T18:41:46;5.03;;;4.63;;
1164;SDS011;571;50.930;6.926;2022-11-12T18:44:13;8.47;;;4.83;;
1164;SDS011;571;50.930;6.926;2022-11-12T18:46:39;6.70;;;4.60;;
1164;SDS011;571;50.930;6.926;2022-11-12T18:49:07;5.30;;;4.80;;
1164;SDS011;571;50.930;6.926;2022-11-12T18:51:34;5.00;;;4.40;;
1164;SDS011;571;50.930;6.926;2022-11-12T18:54:02;6.37;;;4.63;;
1164;SDS011;571;50.930;6.926;2022-11-12T18:56:29;5.43;;;5.00;;
1164;SDS011;571;50.930;6.926;2022-11-12T18:58:55;5.60;;;5.10;;
1164;SDS011;571;50.930;6.926;2022-11-12T19:01:22;4.87;;;4.47;;
1164;SDS011;571;50.930;6.926;2022-11-12T19:03:51;5.20;;;4.70;;
1164;SDS011;571;50.930;6.926;2022-11-12T19:06:20;5.63;;;5.03;;
1164;SDS011;571;50.930;6.926;2022-11-12T19:08:48;5.60;;;5.03;;
1164;SDS011;571;50.930;6.926;2022-11-12T19:11:15;5.23;;;4.73;;
1164;SDS011;571;50.930;6.926;2022-11-12T19:13:48;6.00;;;5.50;;
1164;SDS011;571;50.930;6.926;2022-11-12T19:16:16;7.07;;;5.57;;
1164;SDS011;571;50.930;6.926;2022-11-12T19:18:45;5.23;;;4.80;;
1164;SDS011;571;50.930;6.926;2022-11-12T19:21:12;5.80;;;5.20;;
1164;SDS011;571;50.930;6.926;2022-11-12T19:23:42;6.03;;;5.50;;
1164;SDS011;571;50.930;6.926;2022-11-12T19:26:10;8.90;;;5.27;;
1164;SDS011;571;50.930;6.926;2022-11-12T19:28:38;6.30;;;5.60;;
1164;SDS011;571;50.930;6.926;2022-11-12T19:31:06;5.80;;;5.30;;
1164;SDS011;571;50.930;6.926;2022-11-12T19:33:35;7.13;;;5.47;;
1164;SDS011;571;50.930;6.926;2022-11-12T19:36:03;6.30;;;5.70;;
1164;SDS011;571;50.930;6.926;2022-11-12T19:38:31;7.13;;;5.00;;
1164;SDS011;571;50.930;6.926;2022-11-12T19:41:02;6.33;;;5.73;;
1164;SDS011;571;50.930;6.926;2022-11-12T19:43:29;6.37;;;5.77;;
1164;SDS011;571;50.930;6.926;2022-11-12T19:45:56;5.40;;;5.00;;
1164;SDS011;571;50.930;6.926;2022-11-12T19:48:23;6.30;;;5.80;;
1164;SDS011;571;50.930;6.926;2022-11-12T19:50:50;8.90;;;7.20;;
1164;SDS011;571;50.930;6.926;2022-11-12T19:53:17;7.30;;;5.70;;
1164;SDS011;571;50.930;6.926;2022-11-12T19:55:43;7.47;;;6.70;;
1164;SDS011;571;50.930;6.926;2022-11-12T19:58:11;6.17;;;5.67;;
1164;SDS011;571;50.930;6.926;2022-11-12T20:00:38;6.93;;;6.23;;
1164;SDS011;571;50.930;6.926;2022-11-12T20:03:05;6.87;;;6.00;;
1164;SDS011;571;50.930;6.926;2022-11-12T20:05:32;6.53;;;6.03;;
1164;SDS011;571;50.930;6.926;2022-11-12T20:07:59;7.43;;;6.70;;
1164;SDS011;571;50.930;6.926;2022-11-12T20:10:25;7.97;;;6.00;;
1164;SDS011;571;50.930;6.926;2022-11-12T20:12:53;6.40;;;5.80;;
1164;SDS011;571;50.930;6.926;2022-11-12T20:15:21;7.03;;;5.90;;
1164;SDS011;571;50.930;6.926;2022-11-12T20:17:48;7.70;;;6.23;;
1164;SDS011;571;50.930;6.926;2022-11-12T20:20:14;7.07;;;6.47;;
1164;SDS011;571;50.930;6.926;2022-11-12T20:22:41;6.83;;;6.20;;
1164;SDS011;571;50.930;6.926;2022-11-12T20:25:08;6.90;;;6.20;;
1164;SDS011;571;50.930;6.926;2022-11-12T20:27:35;7.10;;;6.50;;
1164;SDS011;571;50.930;6.926;2022-11-12T20:30:02;6.57;;;5.97;;
1164;SDS011;571;50.930;6.926;2022-11-12T20:32:31;8.53;;;7.17;;
1164;SDS011;571;50.930;6.926;2022-11-12T20:34:57;7.13;;;6.10;;
1164;SDS011;571;50.930;6.926;2022-11-12T20:37:24;7.80;;;7.10;;
1164;SDS011;571;50.930;6.926;2022-11-12T20:39:51;7.93;;;7.20;;
1164;SDS011;571;50.930;6.926;2022-11-12T20:42:18;7.03;;;6.33;;
1164;SDS011;571;50.930;6.926;2022-11-12T20:44:44;8.20;;;7.30;;
1164;SDS011;571;50.930;6.926;2022-11-12T20:47:11;8.07;;;7.27;;
1164;SDS011;571;50.930;6.926;2022-11-12T20:49:39;9.60;;;7.43;;
1164;SDS011;571;50.930;6.926;2022-11-12T20:52:06;8.03;;;7.23;;
1164;SDS011;571;50.930;6.926;2022-11-12T20:54:33;7.00;;;6.40;;
1164;SDS011;571;50.930;6.926;2022-11-12T20:56:59;6.87;;;6.27;;
1164;SDS011;571;50.930;6.926;2022-11-12T20:59:27;8.07;;;7.30;;
1164;SDS011;571;50.930;6.926;2022-11-12T21:01:54;6.80;;;6.23;;
1164;SDS011;571;50.930;6.926;2022-11-12T21:04:21;8.00;;;7.10;;
1164;SDS011;571;50.930;6.926;2022-11-12T21:06:49;7.80;;;7.10;;
1164;SDS011;571;50.930;6.926;2022-11-12T21:09:16;7.83;;;7.00;;
1164;SDS011;571;50.930;6.926;2022-11-12T21:11:43;7.57;;;6.87;;
1164;SDS011;571;50.930;6.926;2022-11-12T21:14:10;8.60;;;7.40;;
1164;SDS011;571;50.930;6.926;2022-11-12T21:16:38;8.50;;;7.60;;
1164;SDS011;571;50.930;6.926;2022-11-12T21:19:05;8.93;;;8.03;;
1164;SDS011;571;50.930;6.926;2022-11-12T21:21:32;10.90;;;8.23;;
1164;SDS011;571;50.930;6.926;2022-11-12T21:24:00;7.73;;;6.43;;
1164;SDS011;571;50.930;6.926;2022-11-12T21:26:27;7.60;;;6.83;;
1164;SDS011;571;50.930;6.926;2022-11-12T21:28:53;7.63;;;6.93;;
1164;SDS011;571;50.930;6.926;2022-11-12T21:31:21;7.97;;;7.17;;
1164;SDS011;571;50.930;6.926;2022-11-12T21:33:50;8.47;;;7.57;;
1164;SDS011;571;50.930;6.926;2022-11-12T21:36:17;7.50;;;6.80;;
1164;SDS011;571;50.930;6.926;2022-11-12T21:38:44;7.20;;;6.50;;
1164;SDS011;571;50.930;6.926;2022-11-12T21:41:13;8.33;;;7.30;;
1164;SDS011;571;50.930;6.926;2022-11-12T21:43:41;8.10;;;6.63;;
1164;SDS011;571;50.930;6.926;2022-11-12T21:46:09;7.10;;;6.50;;
1164;SDS011;571;50.930;6.926;2022-11-12T21:48:39;7.47;;;6.87;;
1164;SDS011;571;50.930;6.926;2022-11-12T21:51:07;8.10;;;7.40;;
1164;SDS011;571;50.930;6.926;2022-11-12T21:53:35;7.83;;;7.13;;
1164;SDS011;571;50.930;6.926;2022-11-12T21:56:02;7.50;;;6.80;;
1164;SDS011;571;50.930;6.926;2022-11-12T21:58:31;8.03;;;7.33;;
1164;SDS011;571;50.930;6.926;2022-11-12T22:01:04;8.60;;;7.40;;
1164;SDS011;571;50.930;6.926;2022-11-12T22:03:32;8.10;;;7.30;;
1164;SDS011;571;50.930;6.926;2022-11-12T22:05:59;7.87;;;7.13;;
1164;SDS011;571;50.930;6.926;2022-11-12T22:08:26;9.43;;;8.70;;
1164;SDS011;571;50.930;6.926;2022-11-12T22:10:58;8.23;;;7.30;;
1164;SDS011;571;50.930;6.926;2022-11-12T22:13:25;8.20;;;7.50;;
1164;SDS011;571;50.930;6.926;2022-11-12T22:15:53;7.77;;;7.17;;
1164;SDS011;571;50.930;6.926;2022-11-12T22:18:20;8.53;;;7.63;;
1164;SDS011;571;50.930;6.926;2022-11-12T22:20:54;7.30;;;6.70;;
1164;SDS011;571;50.930;6.926;2022-11-12T22:23:21;6.97;;;6.37;;
1164;SDS011;571;50.930;6.926;2022-11-12T22:25:48;8.17;;;7.30;;
1164;SDS011;571;50.930;6.926;2022-11-12T22:28:15;9.53;;;8.00;;
1164;SDS011;571;50.930;6.926;2022-11-12T22:30:42;7.10;;;6.40;;
1164;SDS011;571;50.930;6.926;2022-11-12T22:33:10;8.87;;;7.33;;
1164;SDS011;571;50.930;6.926;2022-11-12T22:35:37;8.70;;;7.00;;
1164;SDS011;571;50.930;6.926;2022-11-12T22:38:04;7.30;;;6.60;;
1164;SDS011;571;50.930;6.926;2022-11-12T22:40:30;8.37;;;7.67;;
1164;SDS011;571;50.930;6.926;2022-11-12T22:42:57;9.20;;;8.30;;
1164;SDS011;571;50.930;6.926;2022-11-12T22:45:24;7.23;;;6.57;;
1164;SDS011;571;50.930;6.926;2022-11-12T22:47:51;8.30;;;7.50;;
1164;SDS011;571;50.930;6.926;2022-11-12T22:50:19;10.73;;;7.60;;
1164;SDS011;571;50.930;6.926;2022-11-12T22:52:46;8.10;;;6.80;;
1164;SDS011;571;50.930;6.926;2022-11-12T22:55:12;7.53;;;6.30;;
1164;SDS011;571;50.930;6.926;2022-11-12T22:57:39;8.50;;;7.70;;
1164;SDS011;571;50.930;6.926;2022-11-12T23:57:15;8.47;;;7.67;;
1164;SDS011;571;50.930;6.926;2022-11-12T23:59:51;9.20;;;8.30;;
